Weather at Farkë Helicopter Base

Public forecast

Using degrees Celsius for public forecast. Weather courtesy of forecast.io.

Closest aviation weather report (METAR) to Farkë Helicopter Base

Closest report is Tirana International Airport Mother Teresa, 9.5 nm (17.6 km) NW.

2024/07/14 16:50 (retrieved 18 minutes ago)

LATI 141650Z 35005KT CAVOK 32/19 Q1010 NOSIG

Closest aviation forecast (TAF) to Farkë Helicopter Base

Closest forecast is Tirana International Airport Mother Teresa, 9.5 nm (17.6 km) NW.

2024/07/14 12:06 (retrieved 5 hours ago)

TAF LATI 141100Z 1412/1512 33010KT CAVOK TX38/1512Z TN21/1503Z BECMG 1416/1418 VRB03KT